sensor_id;sensor_type;location;lat;lon;timestamp;pressure;altitude;pressure_sealevel;temperature;humidity
61359;BME280;47228;46.762;23.598;2023-02-04T00:00:28;96474.29;;;0.29;83.18
61359;BME280;47228;46.762;23.598;2023-02-04T00:03:17;96476.70;;;0.27;83.02
61359;BME280;47228;46.762;23.598;2023-02-04T00:05:45;96474.27;;;0.25;82.90
61359;BME280;47228;46.762;23.598;2023-02-04T00:08:13;96473.77;;;0.24;82.92
61359;BME280;47228;46.762;23.598;2023-02-04T00:10:41;96476.98;;;0.21;82.84
61359;BME280;47228;46.762;23.598;2023-02-04T00:13:09;96482.65;;;0.15;82.72
61359;BME280;47228;46.762;23.598;2023-02-04T00:15:37;96481.95;;;0.10;83.00
61359;BME280;47228;46.762;23.598;2023-02-04T00:18:05;96477.71;;;0.09;83.31
61359;BME280;47228;46.762;23.598;2023-02-04T00:20:33;96474.70;;;0.08;83.31
61359;BME280;47228;46.762;23.598;2023-02-04T00:23:01;96476.19;;;0.06;83.25
61359;BME280;47228;46.762;23.598;2023-02-04T00:25:29;96476.77;;;0.06;83.36
61359;BME280;47228;46.762;23.598;2023-02-04T00:27:57;96478.27;;;0.06;83.43
61359;BME280;47228;46.762;23.598;2023-02-04T00:30:25;96477.89;;;0.05;83.42
61359;BME280;47228;46.762;23.598;2023-02-04T00:32:53;96476.55;;;0.03;83.51
61359;BME280;47228;46.762;23.598;2023-02-04T00:35:23;96473.11;;;0.03;83.42
61359;BME280;47228;46.762;23.598;2023-02-04T00:37:51;96472.66;;;0.04;83.53
61359;BME280;47228;46.762;23.598;2023-02-04T00:40:20;96474.20;;;0.06;83.57
61359;BME280;47228;46.762;23.598;2023-02-04T00:42:47;96472.56;;;0.06;83.70
61359;BME280;47228;46.762;23.598;2023-02-04T00:45:15;96474.30;;;0.08;83.84
61359;BME280;47228;46.762;23.598;2023-02-04T00:47:43;96476.46;;;0.09;83.95
61359;BME280;47228;46.762;23.598;2023-02-04T00:50:12;96477.45;;;0.11;84.01
61359;BME280;47228;46.762;23.598;2023-02-04T00:52:40;96474.22;;;0.12;84.00
61359;BME280;47228;46.762;23.598;2023-02-04T00:55:08;96473.18;;;0.12;83.88
61359;BME280;47228;46.762;23.598;2023-02-04T00:57:38;96474.17;;;0.09;83.59
61359;BME280;47228;46.762;23.598;2023-02-04T01:00:06;96479.27;;;0.07;83.79
61359;BME280;47228;46.762;23.598;2023-02-04T01:02:35;96475.80;;;0.07;83.98
61359;BME280;47228;46.762;23.598;2023-02-04T01:05:03;96474.98;;;0.08;84.12
61359;BME280;47228;46.762;23.598;2023-02-04T01:07:31;96472.84;;;0.09;83.82
61359;BME280;47228;46.762;23.598;2023-02-04T01:09:59;96469.96;;;0.06;83.38
61359;BME280;47228;46.762;23.598;2023-02-04T01:12:27;96467.06;;;-0.01;83.13
61359;BME280;47228;46.762;23.598;2023-02-04T01:14:55;96466.26;;;-0.07;83.51
61359;BME280;47228;46.762;23.598;2023-02-04T01:17:24;96462.91;;;-0.10;83.66
61359;BME280;47228;46.762;23.598;2023-02-04T01:19:52;96462.92;;;-0.10;84.12
61359;BME280;47228;46.762;23.598;2023-02-04T01:22:20;96461.49;;;-0.08;84.27
61359;BME280;47228;46.762;23.598;2023-02-04T01:24:48;96466.30;;;-0.07;84.36
61359;BME280;47228;46.762;23.598;2023-02-04T01:27:17;96465.02;;;-0.07;84.29
61359;BME280;47228;46.762;23.598;2023-02-04T01:29:45;96465.03;;;-0.09;84.34
61359;BME280;47228;46.762;23.598;2023-02-04T01:32:13;96467.88;;;-0.08;84.58
61359;BME280;47228;46.762;23.598;2023-02-04T01:34:40;96467.11;;;-0.05;84.69
61359;BME280;47228;46.762;23.598;2023-02-04T01:37:08;96473.88;;;-0.02;84.72
61359;BME280;47228;46.762;23.598;2023-02-04T01:39:36;96470.46;;;-0.00;84.39
61359;BME280;47228;46.762;23.598;2023-02-04T01:42:05;96465.83;;;-0.01;84.48
61359;BME280;47228;46.762;23.598;2023-02-04T01:44:33;96465.50;;;-0.02;84.37
61359;BME280;47228;46.762;23.598;2023-02-04T01:47:01;96466.42;;;0.00;84.56
61359;BME280;47228;46.762;23.598;2023-02-04T01:49:29;96466.52;;;0.01;84.39
61359;BME280;47228;46.762;23.598;2023-02-04T01:51:57;96463.98;;;0.02;84.49
61359;BME280;47228;46.762;23.598;2023-02-04T01:54:25;96463.14;;;0.03;84.31
61359;BME280;47228;46.762;23.598;2023-02-04T01:56:54;96461.10;;;0.01;83.98
61359;BME280;47228;46.762;23.598;2023-02-04T01:59:22;96465.20;;;-0.00;84.47
61359;BME280;47228;46.762;23.598;2023-02-04T02:01:51;96468.60;;;0.01;84.67
61359;BME280;47228;46.762;23.598;2023-02-04T02:04:33;96469.59;;;0.01;84.81
61359;BME280;47228;46.762;23.598;2023-02-04T02:07:04;96475.80;;;0.05;85.07
61359;BME280;47228;46.762;23.598;2023-02-04T02:09:33;96476.17;;;0.10;85.11
61359;BME280;47228;46.762;23.598;2023-02-04T02:12:02;96476.48;;;0.14;84.98
61359;BME280;47228;46.762;23.598;2023-02-04T02:14:30;96477.91;;;0.16;84.81
61359;BME280;47228;46.762;23.598;2023-02-04T02:16:58;96477.50;;;0.16;84.94
61359;BME280;47228;46.762;23.598;2023-02-04T02:19:31;96475.41;;;0.18;85.02
61359;BME280;47228;46.762;23.598;2023-02-04T02:22:26;96472.34;;;0.17;84.72
61359;BME280;47228;46.762;23.598;2023-02-04T02:24:55;96474.34;;;0.16;84.79
61359;BME280;47228;46.762;23.598;2023-02-04T02:27:23;96472.55;;;0.17;84.90
61359;BME280;47228;46.762;23.598;2023-02-04T02:29:51;96470.71;;;0.19;85.19
61359;BME280;47228;46.762;23.598;2023-02-04T02:32:19;96470.96;;;0.20;85.05
61359;BME280;47228;46.762;23.598;2023-02-04T02:34:47;96470.94;;;0.19;84.93
61359;BME280;47228;46.762;23.598;2023-02-04T02:37:15;96473.12;;;0.18;85.00
61359;BME280;47228;46.762;23.598;2023-02-04T02:39:44;96475.15;;;0.17;84.88
61359;BME280;47228;46.762;23.598;2023-02-04T02:42:14;96476.90;;;0.15;84.74
61359;BME280;47228;46.762;23.598;2023-02-04T02:44:44;96483.09;;;0.12;84.64
61359;BME280;47228;46.762;23.598;2023-02-04T02:47:19;96482.83;;;0.11;85.10
61359;BME280;47228;46.762;23.598;2023-02-04T02:49:49;96484.48;;;0.10;85.22
61359;BME280;47228;46.762;23.598;2023-02-04T02:52:18;96486.09;;;0.10;85.38
61359;BME280;47228;46.762;23.598;2023-02-04T02:54:47;96486.08;;;0.12;85.45
61359;BME280;47228;46.762;23.598;2023-02-04T02:57:18;96483.56;;;0.14;85.41
61359;BME280;47228;46.762;23.598;2023-02-04T02:59:47;96487.16;;;0.17;85.56
61359;BME280;47228;46.762;23.598;2023-02-04T03:02:17;96484.19;;;0.19;85.64
61359;BME280;47228;46.762;23.598;2023-02-04T03:04:52;96483.08;;;0.19;85.53
61359;BME280;47228;46.762;23.598;2023-02-04T03:07:22;96481.19;;;0.19;85.53
61359;BME280;47228;46.762;23.598;2023-02-04T03:09:50;96480.57;;;0.20;85.66
61359;BME280;47228;46.762;23.598;2023-02-04T03:12:20;96479.16;;;0.18;85.36
61359;BME280;47228;46.762;23.598;2023-02-04T03:14:48;96480.66;;;0.18;85.10
61359;BME280;47228;46.762;23.598;2023-02-04T03:17:16;96483.27;;;0.16;85.30
61359;BME280;47228;46.762;23.598;2023-02-04T03:19:44;96482.45;;;0.15;85.55
61359;BME280;47228;46.762;23.598;2023-02-04T03:22:12;96483.13;;;0.16;85.62
61359;BME280;47228;46.762;23.598;2023-02-04T03:24:40;96485.16;;;0.16;85.73
61359;BME280;47228;46.762;23.598;2023-02-04T03:27:08;96487.72;;;0.18;85.69
61359;BME280;47228;46.762;23.598;2023-02-04T03:29:42;96488.41;;;0.20;85.85
61359;BME280;47228;46.762;23.598;2023-02-04T03:32:10;96491.22;;;0.23;85.89
61359;BME280;47228;46.762;23.598;2023-02-04T03:34:38;96494.14;;;0.25;85.68
61359;BME280;47228;46.762;23.598;2023-02-04T03:37:06;96492.77;;;0.27;85.69
61359;BME280;47228;46.762;23.598;2023-02-04T03:39:34;96492.97;;;0.28;85.77
61359;BME280;47228;46.762;23.598;2023-02-04T03:42:02;96489.48;;;0.30;85.89
61359;BME280;47228;46.762;23.598;2023-02-04T03:44:30;96484.65;;;0.33;85.82
61359;BME280;47228;46.762;23.598;2023-02-04T03:46:58;96484.00;;;0.36;85.63
61359;BME280;47228;46.762;23.598;2023-02-04T03:49:26;96485.09;;;0.37;85.35
61359;BME280;47228;46.762;23.598;2023-02-04T03:51:55;96483.40;;;0.38;85.44
61359;BME280;47228;46.762;23.598;2023-02-04T03:54:23;96479.70;;;0.39;85.42
61359;BME280;47228;46.762;23.598;2023-02-04T03:56:51;96478.39;;;0.38;85.22
61359;BME280;47228;46.762;23.598;2023-02-04T03:59:19;96479.98;;;0.37;85.39
61359;BME280;47228;46.762;23.598;2023-02-04T04:01:47;96475.68;;;0.37;85.31
61359;BME280;47228;46.762;23.598;2023-02-04T04:04:15;96473.36;;;0.36;85.12
61359;BME280;47228;46.762;23.598;2023-02-04T04:06:43;96472.91;;;0.37;85.46
61359;BME280;47228;46.762;23.598;2023-02-04T04:09:11;96470.40;;;0.39;85.60
61359;BME280;47228;46.762;23.598;2023-02-04T04:11:40;96471.37;;;0.40;85.43
61359;BME280;47228;46.762;23.598;2023-02-04T04:14:08;96469.09;;;0.40;85.45
61359;BME280;47228;46.762;23.598;2023-02-04T04:16:36;96474.21;;;0.41;85.36
61359;BME280;47228;46.762;23.598;2023-02-04T04:19:04;96475.52;;;0.42;85.34
61359;BME280;47228;46.762;23.598;2023-02-04T04:21:32;96477.02;;;0.45;85.45
61359;BME280;47228;46.762;23.598;2023-02-04T04:24:00;96475.83;;;0.48;85.49
61359;BME280;47228;46.762;23.598;2023-02-04T04:26:28;96474.96;;;0.49;85.14
61359;BME280;47228;46.762;23.598;2023-02-04T04:28:55;96475.27;;;0.49;85.12
61359;BME280;47228;46.762;23.598;2023-02-04T04:31:23;96474.56;;;0.50;85.06
61359;BME280;47228;46.762;23.598;2023-02-04T04:33:51;96473.13;;;0.50;85.22
61359;BME280;47228;46.762;23.598;2023-02-04T04:36:19;96475.11;;;0.51;85.46
61359;BME280;47228;46.762;23.598;2023-02-04T04:38:47;96473.39;;;0.49;85.16
61359;BME280;47228;46.762;23.598;2023-02-04T04:41:15;96472.23;;;0.47;85.17
61359;BME280;47228;46.762;23.598;2023-02-04T04:43:43;96472.56;;;0.47;85.55
61359;BME280;47228;46.762;23.598;2023-02-04T04:46:11;96470.15;;;0.49;85.39
61359;BME280;47228;46.762;23.598;2023-02-04T04:48:39;96474.47;;;0.49;85.35
61359;BME280;47228;46.762;23.598;2023-02-04T04:51:07;96472.99;;;0.50;85.26
61359;BME280;47228;46.762;23.598;2023-02-04T04:53:36;96470.70;;;0.46;84.72
61359;BME280;47228;46.762;23.598;2023-02-04T04:56:04;96473.04;;;0.39;84.69
61359;BME280;47228;46.762;23.598;2023-02-04T04:58:32;96471.27;;;0.31;84.76
61359;BME280;47228;46.762;23.598;2023-02-04T05:01:00;96471.51;;;0.27;84.90
61359;BME280;47228;46.762;23.598;2023-02-04T05:03:28;96472.59;;;0.25;85.02
61359;BME280;47228;46.762;23.598;2023-02-04T05:05:56;96475.38;;;0.25;85.22
61359;BME280;47228;46.762;23.598;2023-02-04T05:08:23;96478.43;;;0.27;85.31
61359;BME280;47228;46.762;23.598;2023-02-04T05:10:51;96481.30;;;0.28;85.21
61359;BME280;47228;46.762;23.598;2023-02-04T05:13:19;96483.21;;;0.27;84.95
61359;BME280;47228;46.762;23.598;2023-02-04T05:15:47;96482.38;;;0.23;84.79
61359;BME280;47228;46.762;23.598;2023-02-04T05:18:15;96482.66;;;0.19;84.85
61359;BME280;47228;46.762;23.598;2023-02-04T05:20:43;96483.55;;;0.13;85.17
61359;BME280;47228;46.762;23.598;2023-02-04T05:23:11;96481.72;;;0.10;85.43
61359;BME280;47228;46.762;23.598;2023-02-04T05:25:39;96484.25;;;0.08;85.33
61359;BME280;47228;46.762;23.598;2023-02-04T05:28:07;96489.46;;;0.08;85.41
61359;BME280;47228;46.762;23.598;2023-02-04T05:30:35;96491.58;;;0.09;85.58
61359;BME280;47228;46.762;23.598;2023-02-04T05:33:03;96495.45;;;0.13;86.09
61359;BME280;47228;46.762;23.598;2023-02-04T05:35:31;96496.83;;;0.18;86.30
61359;BME280;47228;46.762;23.598;2023-02-04T05:37:59;96494.06;;;0.21;85.93
61359;BME280;47228;46.762;23.598;2023-02-04T05:40:27;96499.58;;;0.23;86.11
61359;BME280;47228;46.762;23.598;2023-02-04T05:42:55;96501.27;;;0.23;85.78
61359;BME280;47228;46.762;23.598;2023-02-04T05:45:22;96504.61;;;0.25;85.71
61359;BME280;47228;46.762;23.598;2023-02-04T05:47:51;96505.40;;;0.26;85.71
61359;BME280;47228;46.762;23.598;2023-02-04T05:50:19;96505.64;;;0.27;85.78
61359;BME280;47228;46.762;23.598;2023-02-04T05:52:47;96505.31;;;0.29;86.03
61359;BME280;47228;46.762;23.598;2023-02-04T05:55:15;96506.63;;;0.31;86.28
61359;BME280;47228;46.762;23.598;2023-02-04T05:57:43;96505.45;;;0.34;86.13
61359;BME280;47228;46.762;23.598;2023-02-04T06:00:11;96504.97;;;0.32;85.55
61359;BME280;47228;46.762;23.598;2023-02-04T06:02:39;96506.20;;;0.28;85.38
61359;BME280;47228;46.762;23.598;2023-02-04T06:05:07;96506.84;;;0.27;85.58
61359;BME280;47228;46.762;23.598;2023-02-04T06:07:35;96511.09;;;0.26;85.40
61359;BME280;47228;46.762;23.598;2023-02-04T06:10:03;96518.23;;;0.26;85.78
61359;BME280;47228;46.762;23.598;2023-02-04T06:12:31;96518.11;;;0.28;85.94
61359;BME280;47228;46.762;23.598;2023-02-04T06:14:59;96521.48;;;0.25;85.68
61359;BME280;47228;46.762;23.598;2023-02-04T06:17:27;96526.63;;;0.24;85.55
61359;BME280;47228;46.762;23.598;2023-02-04T06:19:55;96528.13;;;0.22;85.66
61359;BME280;47228;46.762;23.598;2023-02-04T06:22:23;96525.89;;;0.21;85.92
61359;BME280;47228;46.762;23.598;2023-02-04T06:24:52;96527.40;;;0.22;85.91
61359;BME280;47228;46.762;23.598;2023-02-04T06:27:21;96523.91;;;0.23;85.92
61359;BME280;47228;46.762;23.598;2023-02-04T06:29:52;96521.61;;;0.28;86.15
61359;BME280;47228;46.762;23.598;2023-02-04T06:32:21;96524.98;;;0.29;86.07
61359;BME280;47228;46.762;23.598;2023-02-04T06:34:50;96521.75;;;0.29;86.35
61359;BME280;47228;46.762;23.598;2023-02-04T06:37:18;96524.82;;;0.33;86.36
61359;BME280;47228;46.762;23.598;2023-02-04T06:39:46;96527.39;;;0.39;86.46
61359;BME280;47228;46.762;23.598;2023-02-04T06:42:15;96527.48;;;0.43;86.21
61359;BME280;47228;46.762;23.598;2023-02-04T06:44:43;96530.88;;;0.47;85.94
61359;BME280;47228;46.762;23.598;2023-02-04T06:47:11;96532.02;;;0.52;85.75
61359;BME280;47228;46.762;23.598;2023-02-04T06:49:39;96542.06;;;0.53;85.31
61359;BME280;47228;46.762;23.598;2023-02-04T06:52:06;96547.24;;;0.51;85.11
61359;BME280;47228;46.762;23.598;2023-02-04T06:54:34;96546.36;;;0.51;85.16
61359;BME280;47228;46.762;23.598;2023-02-04T06:57:03;96548.55;;;0.52;85.01
61359;BME280;47228;46.762;23.598;2023-02-04T06:59:34;96548.59;;;0.55;85.12
61359;BME280;47228;46.762;23.598;2023-02-04T07:02:04;96546.52;;;0.61;85.54
61359;BME280;47228;46.762;23.598;2023-02-04T07:04:33;96542.96;;;0.68;85.14
61359;BME280;47228;46.762;23.598;2023-02-04T07:07:02;96538.27;;;0.72;84.95
61359;BME280;47228;46.762;23.598;2023-02-04T07:09:30;96536.71;;;0.79;85.34
61359;BME280;47228;46.762;23.598;2023-02-04T07:11:58;96531.29;;;0.84;85.01
61359;BME280;47228;46.762;23.598;2023-02-04T07:14:25;96533.52;;;0.88;84.79
61359;BME280;47228;46.762;23.598;2023-02-04T07:16:53;96537.59;;;0.89;84.36
61359;BME280;47228;46.762;23.598;2023-02-04T07:19:21;96540.71;;;0.89;84.13
61359;BME280;47228;46.762;23.598;2023-02-04T07:21:49;96543.69;;;0.91;84.24
61359;BME280;47228;46.762;23.598;2023-02-04T07:24:20;96545.02;;;0.93;84.40
61359;BME280;47228;46.762;23.598;2023-02-04T07:26:48;96548.95;;;0.97;84.37
61359;BME280;47228;46.762;23.598;2023-02-04T07:29:17;96547.58;;;1.01;84.26
61359;BME280;47228;46.762;23.598;2023-02-04T07:31:52;96550.85;;;1.06;84.07
61359;BME280;47228;46.762;23.598;2023-02-04T07:34:20;96545.45;;;1.09;83.84
61359;BME280;47228;46.762;23.598;2023-02-04T07:36:49;96542.71;;;1.10;83.55
61359;BME280;47228;46.762;23.598;2023-02-04T07:39:17;96544.61;;;1.09;83.20
61359;BME280;47228;46.762;23.598;2023-02-04T07:41:45;96541.31;;;1.10;83.67
61359;BME280;47228;46.762;23.598;2023-02-04T07:44:12;96545.40;;;1.13;83.83
61359;BME280;47228;46.762;23.598;2023-02-04T07:46:40;96540.75;;;1.14;83.77
61359;BME280;47228;46.762;23.598;2023-02-04T07:49:08;96540.92;;;1.14;83.89
61359;BME280;47228;46.762;23.598;2023-02-04T07:51:36;96543.23;;;1.17;83.98
61359;BME280;47228;46.762;23.598;2023-02-04T07:54:04;96544.93;;;1.21;83.80
61359;BME280;47228;46.762;23.598;2023-02-04T07:56:32;96548.56;;;1.24;83.37
61359;BME280;47228;46.762;23.598;2023-02-04T07:59:00;96551.61;;;1.22;83.00
61359;BME280;47228;46.762;23.598;2023-02-04T08:01:28;96555.02;;;1.23;83.41
61359;BME280;47228;46.762;23.598;2023-02-04T08:03:56;96556.45;;;1.25;83.44
61359;BME280;47228;46.762;23.598;2023-02-04T08:06:24;96556.15;;;1.28;83.51
61359;BME280;47228;46.762;23.598;2023-02-04T08:08:52;96557.40;;;1.32;83.52
61359;BME280;47228;46.762;23.598;2023-02-04T08:11:19;96556.24;;;1.36;83.45
61359;BME280;47228;46.762;23.598;2023-02-04T08:13:47;96560.14;;;1.42;83.55
61359;BME280;47228;46.762;23.598;2023-02-04T08:16:15;96560.68;;;1.46;83.46
61359;BME280;47228;46.762;23.598;2023-02-04T08:18:44;96564.88;;;1.48;83.10
61359;BME280;47228;46.762;23.598;2023-02-04T08:21:11;96567.89;;;1.49;83.04
61359;BME280;47228;46.762;23.598;2023-02-04T08:23:39;96569.66;;;1.51;83.05
61359;BME280;47228;46.762;23.598;2023-02-04T08:26:09;96562.10;;;1.51;82.87
61359;BME280;47228;46.762;23.598;2023-02-04T08:28:38;96563.40;;;1.50;82.91
61359;BME280;47228;46.762;23.598;2023-02-04T08:31:06;96561.81;;;1.51;82.85
61359;BME280;47228;46.762;23.598;2023-02-04T08:33:38;96564.00;;;1.52;83.08
61359;BME280;47228;46.762;23.598;2023-02-04T08:36:07;96562.26;;;1.53;83.11
61359;BME280;47228;46.762;23.598;2023-02-04T08:38:34;96563.53;;;1.56;83.09
61359;BME280;47228;46.762;23.598;2023-02-04T08:41:03;96567.77;;;1.60;82.99
61359;BME280;47228;46.762;23.598;2023-02-04T08:43:31;96569.11;;;1.62;82.92
61359;BME280;47228;46.762;23.598;2023-02-04T08:45:58;96568.70;;;1.63;82.79
61359;BME280;47228;46.762;23.598;2023-02-04T08:48:26;96569.30;;;1.67;83.00
61359;BME280;47228;46.762;23.598;2023-02-04T08:50:54;96571.84;;;1.73;83.10
61359;BME280;47228;46.762;23.598;2023-02-04T08:53:22;96578.36;;;1.79;82.98
61359;BME280;47228;46.762;23.598;2023-02-04T08:55:50;96578.44;;;1.85;82.84
61359;BME280;47228;46.762;23.598;2023-02-04T08:58:18;96582.85;;;1.89;82.62
61359;BME280;47228;46.762;23.598;2023-02-04T09:00:48;96582.33;;;1.92;82.36
61359;BME280;47228;46.762;23.598;2023-02-04T09:03:16;96582.89;;;1.99;82.77
61359;BME280;47228;46.762;23.598;2023-02-04T09:05:44;96582.67;;;2.05;82.50
61359;BME280;47228;46.762;23.598;2023-02-04T09:08:12;96583.91;;;2.10;82.48
61359;BME280;47228;46.762;23.598;2023-02-04T09:10:42;96587.69;;;2.15;82.28
61359;BME280;47228;46.762;23.598;2023-02-04T09:13:10;96591.73;;;2.20;82.15
61359;BME280;47228;46.762;23.598;2023-02-04T09:15:38;96592.07;;;2.20;81.58
61359;BME280;47228;46.762;23.598;2023-02-04T09:18:07;96590.96;;;2.16;81.26
61359;BME280;47228;46.762;23.598;2023-02-04T09:20:43;96593.49;;;2.14;81.64
61359;BME280;47228;46.762;23.598;2023-02-04T09:23:12;96592.61;;;2.12;81.56
61359;BME280;47228;46.762;23.598;2023-02-04T09:25:41;96594.40;;;2.05;81.16
61359;BME280;47228;46.762;23.598;2023-02-04T09:28:11;96591.44;;;2.00;81.47
61359;BME280;47228;46.762;23.598;2023-02-04T09:30:40;96595.76;;;1.99;81.80
61359;BME280;47228;46.762;23.598;2023-02-04T09:33:10;96597.08;;;1.98;81.84
61359;BME280;47228;46.762;23.598;2023-02-04T09:35:39;96598.84;;;1.98;82.05
61359;BME280;47228;46.762;23.598;2023-02-04T09:38:07;96600.11;;;1.98;82.08
61359;BME280;47228;46.762;23.598;2023-02-04T09:40:40;96599.54;;;1.97;82.42
61359;BME280;47228;46.762;23.598;2023-02-04T09:43:20;96603.46;;;1.96;82.18
61359;BME280;47228;46.762;23.598;2023-02-04T09:45:48;96607.35;;;1.93;82.07
61359;BME280;47228;46.762;23.598;2023-02-04T09:48:16;96610.70;;;1.90;81.90
61359;BME280;47228;46.762;23.598;2023-02-04T09:50:45;96608.23;;;1.87;82.30
61359;BME280;47228;46.762;23.598;2023-02-04T09:53:16;96608.86;;;1.88;82.61
61359;BME280;47228;46.762;23.598;2023-02-04T09:55:47;96609.16;;;1.89;82.89
61359;BME280;47228;46.762;23.598;2023-02-04T09:58:17;96606.15;;;1.91;82.93
61359;BME280;47228;46.762;23.598;2023-02-04T10:03:35;96606.85;;;1.92;82.72
61359;BME280;47228;46.762;23.598;2023-02-04T10:06:03;96604.48;;;1.92;83.17
61359;BME280;47228;46.762;23.598;2023-02-04T10:08:32;96604.39;;;1.95;83.05
61359;BME280;47228;46.762;23.598;2023-02-04T10:11:01;96605.40;;;1.96;82.89
61359;BME280;47228;46.762;23.598;2023-02-04T10:13:32;96606.15;;;1.95;82.72
61359;BME280;47228;46.762;23.598;2023-02-04T10:16:03;96606.21;;;1.93;82.70
61359;BME280;47228;46.762;23.598;2023-02-04T10:18:37;96607.80;;;1.91;82.95
61359;BME280;47228;46.762;23.598;2023-02-04T10:21:13;96608.71;;;1.92;82.87
61359;BME280;47228;46.762;23.598;2023-02-04T10:23:44;96606.64;;;1.94;82.87
61359;BME280;47228;46.762;23.598;2023-02-04T10:26:14;96604.67;;;1.96;83.03
61359;BME280;47228;46.762;23.598;2023-02-04T10:28:43;96604.04;;;1.99;82.98
61359;BME280;47228;46.762;23.598;2023-02-04T10:31:28;96606.21;;;2.01;83.26
61359;BME280;47228;46.762;23.598;2023-02-04T10:34:10;96602.16;;;2.06;83.37
61359;BME280;47228;46.762;23.598;2023-02-04T10:36:41;96604.20;;;2.07;82.79
61359;BME280;47228;46.762;23.598;2023-02-04T10:41:54;96603.64;;;1.92;82.07
61359;BME280;47228;46.762;23.598;2023-02-04T10:44:27;96607.81;;;1.84;82.84
61359;BME280;47228;46.762;23.598;2023-02-04T10:47:06;96609.84;;;1.85;83.22
61359;BME280;47228;46.762;23.598;2023-02-04T10:49:37;96606.36;;;1.85;83.34
61359;BME280;47228;46.762;23.598;2023-02-04T10:52:15;96609.36;;;1.83;83.16
61359;BME280;47228;46.762;23.598;2023-02-04T10:54:44;96606.47;;;1.83;83.27
61359;BME280;47228;46.762;23.598;2023-02-04T10:57:20;96605.84;;;1.85;83.82
61359;BME280;47228;46.762;23.598;2023-02-04T10:59:50;96609.27;;;1.89;83.85
61359;BME280;47228;46.762;23.598;2023-02-04T11:02:41;96610.42;;;1.91;83.64
61359;BME280;47228;46.762;23.598;2023-02-04T11:05:12;96614.58;;;1.88;83.29
61359;BME280;47228;46.762;23.598;2023-02-04T11:07:41;96615.70;;;1.78;83.00
61359;BME280;47228;46.762;23.598;2023-02-04T11:10:12;96616.11;;;1.69;83.49
61359;BME280;47228;46.762;23.598;2023-02-04T11:13:00;96616.70;;;1.68;84.15
61359;BME280;47228;46.762;23.598;2023-02-04T11:16:06;96615.45;;;1.71;84.41
61359;BME280;47228;46.762;23.598;2023-02-04T11:18:51;96618.85;;;1.79;84.69
61359;BME280;47228;46.762;23.598;2023-02-04T11:21:28;96618.86;;;1.87;84.80
61359;BME280;47228;46.762;23.598;2023-02-04T11:27:16;96623.36;;;2.01;84.63
61359;BME280;47228;46.762;23.598;2023-02-04T11:29:45;96621.81;;;2.04;84.30
61359;BME280;47228;46.762;23.598;2023-02-04T11:32:30;96623.56;;;2.02;83.80
61359;BME280;47228;46.762;23.598;2023-02-04T11:35:20;96626.11;;;1.98;83.46
61359;BME280;47228;46.762;23.598;2023-02-04T11:37:49;96625.01;;;1.95;83.80
61359;BME280;47228;46.762;23.598;2023-02-04T11:40:34;96629.68;;;1.95;83.74
61359;BME280;47228;46.762;23.598;2023-02-04T11:43:14;96635.02;;;1.92;83.65
61359;BME280;47228;46.762;23.598;2023-02-04T11:45:43;96638.77;;;1.89;83.63
61359;BME280;47228;46.762;23.598;2023-02-04T11:48:14;96637.83;;;1.86;83.97
61359;BME280;47228;46.762;23.598;2023-02-04T11:50:54;96640.61;;;1.86;83.61
61359;BME280;47228;46.762;23.598;2023-02-04T11:53:30;96640.17;;;1.87;83.97
61359;BME280;47228;46.762;23.598;2023-02-04T11:55:58;96642.76;;;1.92;84.50
61359;BME280;47228;46.762;23.598;2023-02-04T11:58:28;96642.45;;;1.97;84.66
61359;BME280;47228;46.762;23.598;2023-02-04T12:00:58;96640.12;;;2.01;84.76
61359;BME280;47228;46.762;23.598;2023-02-04T12:03:29;96645.88;;;2.02;84.11
61359;BME280;47228;46.762;23.598;2023-02-04T12:05:57;96649.95;;;2.00;83.45
61359;BME280;47228;46.762;23.598;2023-02-04T12:08:31;96655.75;;;2.00;83.59
61359;BME280;47228;46.762;23.598;2023-02-04T12:11:01;96658.48;;;2.00;83.88
61359;BME280;47228;46.762;23.598;2023-02-04T12:13:30;96662.42;;;1.98;83.78
61359;BME280;47228;46.762;23.598;2023-02-04T12:18:27;96667.24;;;1.89;83.75
61359;BME280;47228;46.762;23.598;2023-02-04T12:20:56;96669.75;;;1.80;83.57
61359;BME280;47228;46.762;23.598;2023-02-04T12:23:25;96672.42;;;1.73;83.85
61359;BME280;47228;46.762;23.598;2023-02-04T12:25:55;96671.77;;;1.71;84.37
61359;BME280;47228;46.762;23.598;2023-02-04T12:28:23;96675.52;;;1.73;84.68
61359;BME280;47228;46.762;23.598;2023-02-04T12:30:51;96680.27;;;1.71;84.40
61359;BME280;47228;46.762;23.598;2023-02-04T12:33:19;96685.91;;;1.69;84.57
61359;BME280;47228;46.762;23.598;2023-02-04T12:35:47;96687.87;;;1.63;84.32
61359;BME280;47228;46.762;23.598;2023-02-04T12:38:15;96693.53;;;1.56;84.48
61359;BME280;47228;46.762;23.598;2023-02-04T12:40:44;96694.80;;;1.54;84.68
61359;BME280;47228;46.762;23.598;2023-02-04T12:43:13;96696.86;;;1.51;84.83
61359;BME280;47228;46.762;23.598;2023-02-04T12:45:41;96701.92;;;1.44;85.15
61359;BME280;47228;46.762;23.598;2023-02-04T12:48:15;96709.02;;;1.41;85.47
61359;BME280;47228;46.762;23.598;2023-02-04T12:50:43;96716.42;;;1.34;85.40
61359;BME280;47228;46.762;23.598;2023-02-04T12:53:11;96720.84;;;1.32;85.78
61359;BME280;47228;46.762;23.598;2023-02-04T12:55:39;96724.83;;;1.33;85.93
61359;BME280;47228;46.762;23.598;2023-02-04T12:58:06;96727.88;;;1.29;85.83
61359;BME280;47228;46.762;23.598;2023-02-04T13:00:34;96732.75;;;1.23;86.17
61359;BME280;47228;46.762;23.598;2023-02-04T13:03:03;96737.85;;;1.21;86.35
61359;BME280;47228;46.762;23.598;2023-02-04T13:05:32;96740.16;;;1.18;86.32
61359;BME280;47228;46.762;23.598;2023-02-04T13:08:01;96747.64;;;1.15;86.37
61359;BME280;47228;46.762;23.598;2023-02-04T13:10:29;96754.56;;;1.10;86.24
61359;BME280;47228;46.762;23.598;2023-02-04T13:12:57;96755.84;;;1.03;86.26
61359;BME280;47228;46.762;23.598;2023-02-04T13:15:29;96762.98;;;0.99;86.36
61359;BME280;47228;46.762;23.598;2023-02-04T13:17:58;96766.70;;;0.92;85.88
61359;BME280;47228;46.762;23.598;2023-02-04T13:20:25;96770.27;;;0.86;85.83
61359;BME280;47228;46.762;23.598;2023-02-04T13:22:53;96777.03;;;0.83;85.97